Time;durP1;ratioP1;P1;durP2;ratioP2;P2;SDS_P1;SDS_P2;PMS_P1;PMS_P2;Temp;Humidity;BMP_temperature;BMP_pressure;BME280_temperature;BME280_humidity;BME280_pressure;Samples;Min_cycle;Max_cycle;Signal;HPM_P1;HPM_P2
2021/05/15 00:01:10;;;;;;;5.07;4.03;;;11.50;99.90;;;;;;4936157;29;20474;-54
2021/05/15 00:03:36;;;;;;;5.73;4.20;;;11.50;99.90;;;;;;4936824;29;20465;-55
2021/05/15 00:06:04;;;;;;;5.53;3.80;;;11.50;99.90;;;;;;4935855;29;20469;-51
2021/05/15 00:08:30;;;;;;;5.30;3.13;;;11.50;99.90;;;;;;4935577;29;20473;-49
2021/05/15 00:10:56;;;;;;;4.93;3.20;;;11.40;99.90;;;;;;4936084;29;20436;-52
2021/05/15 00:13:24;;;;;;;7.47;4.23;;;11.40;99.90;;;;;;4939329;28;20477;-52
2021/05/15 00:15:50;;;;;;;5.87;3.20;;;11.40;99.90;;;;;;4939551;29;20752;-55
2021/05/15 00:18:17;;;;;;;5.13;4.07;;;11.30;99.90;;;;;;4939120;28;20477;-53
2021/05/15 00:20:44;;;;;;;7.57;4.40;;;11.40;99.90;;;;;;4939755;29;20422;-49
2021/05/15 00:23:11;;;;;;;9.03;4.37;;;11.30;99.90;;;;;;4939704;29;20442;-56
2021/05/15 00:25:37;;;;;;;5.37;3.83;;;11.30;99.90;;;;;;4949745;29;20433;-52
2021/05/15 00:28:04;;;;;;;6.37;5.10;;;11.20;99.90;;;;;;4954732;28;20441;-52
2021/05/15 00:30:30;;;;;;;4.70;4.13;;;11.20;99.90;;;;;;4940080;28;20508;-55
2021/05/15 00:32:56;;;;;;;6.57;4.63;;;11.10;99.90;;;;;;4955111;29;20452;-56
2021/05/15 00:35:22;;;;;;;7.23;5.20;;;11.10;99.90;;;;;;4952490;29;20459;-56
2021/05/15 00:37:49;;;;;;;6.43;4.40;;;11.00;99.90;;;;;;4945587;29;20477;-53
2021/05/15 00:40:17;;;;;;;5.67;4.47;;;11.00;99.90;;;;;;4958551;29;20452;-55
2021/05/15 00:42:43;;;;;;;6.27;4.10;;;11.00;99.90;;;;;;4958305;29;20441;-52
2021/05/15 00:45:12;;;;;;;14.83;5.33;;;11.10;99.90;;;;;;4957743;29;20445;-48
2021/05/15 00:47:39;;;;;;;7.23;5.40;;;11.10;99.90;;;;;;4954606;29;20456;-51
2021/05/15 00:50:07;;;;;;;6.70;4.60;;;11.10;99.90;;;;;;4957555;29;20456;-53
2021/05/15 00:52:35;;;;;;;6.27;5.13;;;11.00;99.90;;;;;;4957430;29;20476;-55
2021/05/15 00:55:07;;;;;;;10.00;5.30;;;11.00;99.90;;;;;;4957419;29;20452;-53
2021/05/15 00:57:34;;;;;;;7.50;5.80;;;11.00;99.90;;;;;;4957302;29;20527;-56
2021/05/15 01:00:01;;;;;;;8.53;5.77;;;10.90;99.90;;;;;;4957626;29;20444;-55
2021/05/15 01:02:27;;;;;;;10.10;6.27;;;10.80;99.90;;;;;;4952920;28;20454;-57
2021/05/15 01:04:53;;;;;;;5.50;4.10;;;10.80;99.90;;;;;;4939376;29;20446;-54
2021/05/15 01:07:20;;;;;;;6.60;4.60;;;10.80;99.90;;;;;;4940659;28;20449;-57
2021/05/15 01:09:46;;;;;;;7.37;4.47;;;10.70;99.90;;;;;;4940825;28;20453;-52
2021/05/15 01:12:12;;;;;;;8.40;4.43;;;10.80;99.90;;;;;;4939037;29;20489;-56
2021/05/15 01:14:39;;;;;;;5.77;4.33;;;10.80;99.90;;;;;;4939109;29;20434;-55
2021/05/15 01:17:09;;;;;;;6.83;4.17;;;10.70;99.90;;;;;;4939353;29;20489;-56
2021/05/15 01:19:36;;;;;;;6.00;3.90;;;10.60;99.90;;;;;;4939540;29;20434;-53
2021/05/15 01:22:06;;;;;;;8.33;4.57;;;10.60;99.90;;;;;;4940451;28;20449;-51
2021/05/15 01:24:32;;;;;;;6.83;4.30;;;10.60;99.90;;;;;;4940779;28;20434;-53
2021/05/15 01:26:59;;;;;;;4.90;4.10;;;10.60;99.90;;;;;;4941011;28;20450;-55
2021/05/15 01:29:26;;;;;;;5.53;4.20;;;10.60;99.90;;;;;;4941121;28;20481;-54
2021/05/15 01:31:52;;;;;;;7.10;5.20;;;10.60;99.90;;;;;;4940359;29;20441;-56
2021/05/15 01:34:18;;;;;;;4.60;3.97;;;10.60;99.90;;;;;;4939608;29;20441;-50
2021/05/15 01:36:44;;;;;;;5.17;4.10;;;10.50;99.90;;;;;;4939131;29;20477;-56
2021/05/15 01:39:14;;;;;;;6.53;4.70;;;10.50;99.90;;;;;;4938847;29;20446;-53
2021/05/15 01:41:43;;;;;;;5.97;4.40;;;10.40;99.90;;;;;;4939180;29;20449;-54
2021/05/15 01:44:10;;;;;;;5.23;4.20;;;10.40;99.90;;;;;;4938678;29;20458;-57
2021/05/15 01:46:37;;;;;;;6.17;4.93;;;10.30;99.90;;;;;;4938908;29;20449;-53
2021/05/15 01:49:03;;;;;;;7.77;5.13;;;10.20;99.90;;;;;;4938698;29;20456;-57
2021/05/15 01:51:29;;;;;;;4.40;3.77;;;10.20;99.90;;;;;;4939379;29;20477;-56
2021/05/15 01:53:56;;;;;;;5.50;4.10;;;10.20;99.90;;;;;;4939431;28;20460;-53
2021/05/15 01:56:25;;;;;;;6.80;4.73;;;10.20;99.90;;;;;;4938730;29;20450;-53
2021/05/15 01:58:52;;;;;;;6.93;5.03;;;10.10;99.90;;;;;;4938444;28;20438;-56
2021/05/15 02:01:19;;;;;;;6.53;4.30;;;10.10;99.90;;;;;;4938888;29;20442;-56
2021/05/15 02:03:45;;;;;;;7.93;4.13;;;10.10;99.90;;;;;;4938231;29;20460;-57
2021/05/15 02:06:13;;;;;;;6.30;4.23;;;10.00;99.90;;;;;;4938644;29;20460;-54
2021/05/15 02:08:41;;;;;;;9.23;4.63;;;10.00;99.90;;;;;;4938616;29;20446;-49
2021/05/15 02:11:08;;;;;;;5.30;4.67;;;9.90;99.90;;;;;;4938669;29;20446;-51
2021/05/15 02:13:35;;;;;;;5.30;4.20;;;9.90;99.90;;;;;;4938758;29;20500;-48
2021/05/15 02:16:02;;;;;;;4.83;4.10;;;9.90;99.90;;;;;;4938974;28;20450;-51
2021/05/15 02:18:30;;;;;;;6.93;4.73;;;9.90;99.90;;;;;;4938602;28;20519;-51
2021/05/15 02:20:56;;;;;;;5.50;4.63;;;9.90;99.90;;;;;;4938202;29;20452;-53
2021/05/15 02:23:24;;;;;;;5.63;4.00;;;9.90;99.90;;;;;;4938051;29;20434;-52
2021/05/15 02:25:53;;;;;;;6.83;4.57;;;9.90;99.90;;;;;;4939528;28;20450;-56
2021/05/15 02:28:19;;;;;;;9.60;4.67;;;9.90;99.90;;;;;;4938465;29;20450;-56
2021/05/15 02:30:47;;;;;;;4.53;3.90;;;9.90;99.90;;;;;;4938182;29;20438;-54
2021/05/15 02:33:14;;;;;;;6.10;3.80;;;9.90;99.90;;;;;;4938122;29;20465;-56
2021/05/15 02:35:40;;;;;;;6.00;3.90;;;10.00;99.90;;;;;;4937587;28;20434;-56
2021/05/15 03:32:05;;;;;;;5.07;3.30;;;9.90;99.90;;;;;;5404170;23;20493;-53
2021/05/15 03:34:34;;;;;;;5.03;3.70;;;9.90;99.90;;;;;;4956950;29;20449;-55
2021/05/15 03:37:00;;;;;;;7.20;4.23;;;9.90;99.90;;;;;;4957099;29;20610;-56
2021/05/15 03:39:26;;;;;;;6.20;4.87;;;9.90;99.90;;;;;;4956142;29;20436;-53
2021/05/15 03:41:52;;;;;;;6.67;4.43;;;9.90;99.90;;;;;;4957099;28;20452;-53
2021/05/15 03:44:18;;;;;;;4.73;4.23;;;10.00;99.90;;;;;;4956497;29;20445;-55
2021/05/15 03:46:45;;;;;;;5.20;4.20;;;10.00;99.90;;;;;;4956040;29;20437;-54
2021/05/15 03:49:12;;;;;;;4.10;3.70;;;10.00;99.90;;;;;;4956279;29;20448;-56
2021/05/15 03:51:39;;;;;;;5.63;5.03;;;10.10;99.90;;;;;;4956242;29;20459;-52
2021/05/15 03:54:05;;;;;;;3.67;3.27;;;10.20;99.90;;;;;;4956003;29;20483;-53
2021/05/15 03:56:34;;;;;;;5.57;4.00;;;10.20;99.90;;;;;;4956314;29;20650;-55
2021/05/15 03:59:01;;;;;;;4.90;3.47;;;10.20;99.90;;;;;;4956489;29;20478;-55
2021/05/15 04:01:27;;;;;;;4.70;3.23;;;10.30;99.90;;;;;;4956430;29;20429;-55
2021/05/15 04:03:53;;;;;;;4.03;3.40;;;10.30;99.90;;;;;;4956511;28;20420;-53
2021/05/15 04:06:20;;;;;;;7.07;5.20;;;10.30;99.90;;;;;;4956322;29;20983;-55
2021/05/15 04:08:46;;;;;;;4.63;3.73;;;10.30;99.90;;;;;;4956697;29;20429;-60
2021/05/15 04:11:12;;;;;;;8.20;3.70;;;10.30;99.90;;;;;;4956739;29;20441;-54
2021/05/15 04:13:45;;;;;;;8.63;4.90;;;10.30;99.90;;;;;;4956736;29;20445;-52
2021/05/15 04:16:15;;;;;;;7.73;4.37;;;10.30;99.90;;;;;;4957006;29;20424;-55
2021/05/15 04:18:41;;;;;;;6.33;4.13;;;10.30;99.90;;;;;;4956528;29;20496;-55
2021/05/15 04:21:07;;;;;;;6.47;4.33;;;10.40;99.90;;;;;;4956788;29;20433;-55
2021/05/15 04:23:34;;;;;;;4.63;4.17;;;10.50;99.90;;;;;;4956055;28;20452;-54
2021/05/15 04:26:03;;;;;;;4.23;3.77;;;10.50;99.90;;;;;;4956056;29;20432;-55
2021/05/15 04:28:30;;;;;;;6.43;4.57;;;10.50;99.90;;;;;;4955789;29;20452;-56
2021/05/15 04:30:57;;;;;;;10.37;5.50;;;10.60;99.90;;;;;;4956097;29;20453;-50
2021/05/15 04:33:23;;;;;;;11.37;4.50;;;10.70;99.90;;;;;;4955912;29;20468;-53
2021/05/15 04:35:50;;;;;;;10.20;5.40;;;10.70;99.90;;;;;;4955504;29;20479;-57
2021/05/15 04:38:17;;;;;;;5.50;4.30;;;10.80;99.90;;;;;;4955782;29;20468;-51
2021/05/15 04:40:47;;;;;;;5.93;3.90;;;10.90;99.90;;;;;;4955962;29;20441;-49
2021/05/15 04:43:14;;;;;;;10.63;5.80;;;11.00;99.90;;;;;;4955538;28;20444;-49
2021/05/15 04:45:41;;;;;;;6.27;3.47;;;11.00;99.90;;;;;;4955643;29;20516;-55
2021/05/15 04:48:08;;;;;;;4.53;4.07;;;11.00;99.90;;;;;;4956075;29;20449;-56
2021/05/15 04:50:34;;;;;;;5.63;4.20;;;11.00;99.90;;;;;;4956250;28;20444;-56
2021/05/15 04:53:00;;;;;;;5.40;4.17;;;11.00;99.90;;;;;;4955343;29;20460;-53
2021/05/15 04:55:27;;;;;;;5.57;4.80;;;11.10;99.90;;;;;;4956442;29;20449;-55
2021/05/15 04:57:54;;;;;;;6.57;5.07;;;11.10;99.90;;;;;;4956168;29;20484;-51
2021/05/15 05:00:20;;;;;;;7.10;4.13;;;11.10;99.90;;;;;;4959473;28;20445;-56
2021/05/15 05:02:50;;;;;;;4.80;3.93;;;11.10;99.90;;;;;;4959721;28;20452;-57
2021/05/15 05:05:16;;;;;;;4.77;3.60;;;11.20;99.90;;;;;;4959705;29;20444;-48
2021/05/15 05:07:42;;;;;;;6.50;4.20;;;11.20;99.90;;;;;;4958757;29;20456;-51
2021/05/15 05:10:09;;;;;;;5.13;3.70;;;11.20;99.90;;;;;;4945448;29;20449;-51
2021/05/15 05:12:36;;;;;;;4.50;3.97;;;11.30;99.90;;;;;;4939801;29;20603;-56
2021/05/15 05:15:03;;;;;;;6.43;4.90;;;11.40;99.90;;;;;;4940893;29;20457;-56
2021/05/15 05:17:30;;;;;;;6.23;5.00;;;11.50;99.90;;;;;;4943086;29;20584;-53
2021/05/15 05:19:56;;;;;;;5.47;4.47;;;11.60;99.90;;;;;;4945052;29;20445;-54
2021/05/15 05:22:24;;;;;;;4.97;4.20;;;11.70;99.90;;;;;;4944672;29;20448;-54
2021/05/15 05:24:50;;;;;;;6.23;4.77;;;11.80;99.90;;;;;;4948046;29;20944;-52
2021/05/15 05:27:19;;;;;;;6.07;5.10;;;11.90;99.90;;;;;;4942441;29;20498;-54
2021/05/15 05:29:46;;;;;;;6.83;4.87;;;12.00;99.90;;;;;;4944455;29;20507;-53
2021/05/15 05:32:13;;;;;;;6.73;5.13;;;12.10;99.90;;;;;;4944988;29;20496;-55
2021/05/15 05:34:39;;;;;;;8.23;5.50;;;12.20;99.90;;;;;;4926254;29;20437;-57
2021/05/15 05:37:06;;;;;;;9.83;5.80;;;12.30;99.90;;;;;;4919498;29;20494;-57
2021/05/15 05:39:34;;;;;;;6.53;5.27;;;12.40;99.90;;;;;;4919696;29;20450;-55
2021/05/15 05:42:00;;;;;;;7.13;5.40;;;12.50;99.90;;;;;;4919681;29;21022;-55
2021/05/15 05:44:27;;;;;;;8.57;6.20;;;12.60;99.90;;;;;;4919244;29;20460;-50
2021/05/15 05:46:53;;;;;;;9.47;6.53;;;12.60;99.90;;;;;;4919094;29;20466;-56
2021/05/15 05:49:20;;;;;;;10.83;7.47;;;12.70;99.90;;;;;;4919409;29;20841;-55
2021/05/15 05:51:46;;;;;;;8.60;6.90;;;12.80;99.90;;;;;;4919587;29;20454;-52
2021/05/15 05:54:12;;;;;;;9.30;7.40;;;12.90;99.90;;;;;;4919500;29;20462;-52
2021/05/15 05:56:39;;;;;;;15.10;7.03;;;13.20;99.90;;;;;;4918905;29;20445;-50
2021/05/15 05:59:05;;;;;;;7.50;6.30;;;13.40;99.90;;;;;;4924971;29;20461;-52
2021/05/15 06:01:31;;;;;;;8.00;6.23;;;13.50;99.90;;;;;;4921287;29;20532;-54
2021/05/15 06:03:57;;;;;;;12.23;6.93;;;13.60;99.90;;;;;;4923926;29;21122;-57
2021/05/15 06:06:24;;;;;;;14.83;8.00;;;13.60;99.90;;;;;;4939275;29;20445;-56
2021/05/15 06:08:51;;;;;;;10.10;7.97;;;13.60;99.90;;;;;;4940187;29;20438;-56
2021/05/15 06:11:17;;;;;;;8.57;6.23;;;13.70;99.90;;;;;;4945096;29;20830;-51
2021/05/15 06:13:43;;;;;;;11.10;8.20;;;13.60;99.90;;;;;;4946775;29;21118;-55
2021/05/15 06:16:09;;;;;;;11.50;8.00;;;13.70;99.90;;;;;;4943849;29;20928;-53
2021/05/15 06:18:35;;;;;;;9.73;8.00;;;13.60;99.90;;;;;;4943708;29;20507;-51
2021/05/15 06:21:02;;;;;;;9.70;7.73;;;13.70;99.90;;;;;;4945738;29;20469;-55
2021/05/15 06:23:29;;;;;;;12.17;7.30;;;13.70;99.90;;;;;;4935907;29;20460;-50
2021/05/15 06:25:55;;;;;;;10.20;7.93;;;13.80;99.90;;;;;;4938843;29;20449;-49
2021/05/15 06:28:21;;;;;;;12.77;8.30;;;13.80;99.90;;;;;;4940649;29;20441;-50
2021/05/15 06:30:47;;;;;;;9.40;7.40;;;13.90;99.90;;;;;;4936807;29;20449;-56
2021/05/15 06:33:13;;;;;;;10.53;8.43;;;13.90;99.90;;;;;;4927893;28;20544;-52
2021/05/15 06:35:40;;;;;;;9.40;8.37;;;14.00;99.90;;;;;;4918340;29;20470;-47
2021/05/15 06:38:06;;;;;;;11.43;9.10;;;14.10;99.90;;;;;;4918154;28;20486;-56
2021/05/15 06:40:34;;;;;;;9.90;7.20;;;14.00;99.90;;;;;;4918371;29;20484;-50
2021/05/15 06:43:00;;;;;;;16.13;7.43;;;14.00;99.90;;;;;;4918134;28;20484;-51
2021/05/15 06:45:26;;;;;;;10.40;6.90;;;14.00;99.90;;;;;;4917868;28;20461;-52
2021/05/15 06:47:54;;;;;;;8.20;7.37;;;14.10;99.90;;;;;;4917997;28;20450;-53
2021/05/15 06:50:20;;;;;;;11.23;7.90;;;14.20;99.90;;;;;;4933572;29;20980;-53
2021/05/15 06:52:51;;;;;;;8.50;6.37;;;14.30;99.90;;;;;;4936851;29;20465;-52
2021/05/15 06:55:18;;;;;;;10.30;7.33;;;14.40;99.90;;;;;;4942932;28;20453;-55
2021/05/15 06:57:44;;;;;;;7.93;6.63;;;14.50;99.90;;;;;;4924376;29;20482;-52
2021/05/15 07:00:12;;;;;;;10.70;8.00;;;14.50;99.90;;;;;;4915888;29;20470;-50
2021/05/15 07:02:38;;;;;;;10.27;7.37;;;14.60;99.90;;;;;;4933094;29;20453;-50
2021/05/15 07:05:05;;;;;;;10.03;7.20;;;14.60;99.90;;;;;;4935154;29;20568;-55
2021/05/15 07:07:31;;;;;;;8.37;7.30;;;14.70;99.90;;;;;;4934980;29;20847;-56
2021/05/15 07:09:58;;;;;;;10.23;7.37;;;14.80;99.90;;;;;;4934862;29;20465;-50
2021/05/15 07:12:25;;;;;;;9.40;7.30;;;14.90;99.90;;;;;;4934782;29;20457;-50
2021/05/15 07:14:52;;;;;;;8.20;6.87;;;15.30;99.90;;;;;;4934498;29;20461;-53
2021/05/15 07:17:24;;;;;;;6.83;6.13;;;16.40;99.90;;;;;;4934905;29;20574;-56
2021/05/15 07:19:50;;;;;;;7.17;5.93;;;18.10;99.90;;;;;;4934852;29;20472;-53
2021/05/15 07:22:17;;;;;;;6.10;5.50;;;19.80;99.90;;;;;;4933865;29;20918;-56
2021/05/15 07:24:43;;;;;;;6.97;6.27;;;21.40;99.90;;;;;;4934657;28;20522;-51
2021/05/15 07:27:09;;;;;;;7.23;6.33;;;22.50;99.90;;;;;;4934731;28;20461;-55
2021/05/15 07:29:35;;;;;;;6.60;6.00;;;22.80;96.50;;;;;;4934225;29;20999;-51
2021/05/15 07:32:03;;;;;;;7.43;6.73;;;22.80;94.60;;;;;;4934206;29;20538;-54
2021/05/15 07:34:29;;;;;;;7.97;7.17;;;22.30;95.10;;;;;;4934418;29;20473;-50
2021/05/15 07:36:55;;;;;;;9.73;7.90;;;21.80;96.70;;;;;;4933916;29;20520;-54
2021/05/15 07:39:21;;;;;;;8.43;7.40;;;22.20;96.20;;;;;;4934065;29;20460;-49
2021/05/15 07:41:47;;;;;;;8.80;7.90;;;22.90;93.90;;;;;;4933996;29;20909;-56
2021/05/15 07:44:14;;;;;;;9.60;7.43;;;23.80;90.50;;;;;;4934267;29;20464;-54
2021/05/15 07:46:40;;;;;;;9.13;8.33;;;24.60;85.70;;;;;;4927158;29;20755;-52
2021/05/15 07:49:07;;;;;;;8.30;7.43;;;25.20;77.50;;;;;;4924626;28;20445;-48
2021/05/15 07:51:33;;;;;;;7.00;6.33;;;25.60;73.60;;;;;;4920901;28;20466;-51
2021/05/15 07:54:01;;;;;;;8.10;7.03;;;26.30;69.30;;;;;;4921908;28;20523;-56
2021/05/15 07:56:27;;;;;;;5.40;4.97;;;27.10;64.40;;;;;;4924955;28;20468;-53
2021/05/15 07:58:54;;;;;;;5.50;5.00;;;27.80;58.80;;;;;;4925625;28;20966;-50
2021/05/15 08:01:20;;;;;;;7.83;7.10;;;28.50;56.00;;;;;;4924318;28;20461;-52
2021/05/15 08:03:46;;;;;;;7.80;7.00;;;28.60;54.70;;;;;;4924675;28;20508;-49
2021/05/15 08:06:13;;;;;;;7.27;5.80;;;29.00;53.50;;;;;;4922983;28;20458;-54
2021/05/15 08:08:39;;;;;;;7.40;6.70;;;29.40;52.60;;;;;;4947753;28;20539;-48
2021/05/15 08:11:06;;;;;;;5.87;5.40;;;29.60;50.80;;;;;;4971490;28;20437;-54
2021/05/15 08:13:32;;;;;;;7.63;6.50;;;29.30;51.50;;;;;;4977668;28;20444;-55
2021/05/15 08:15:59;;;;;;;7.10;6.40;;;29.20;51.90;;;;;;4966507;28;20442;-52
2021/05/15 08:18:25;;;;;;;8.40;7.27;;;29.30;51.80;;;;;;4974694;28;20492;-52
2021/05/15 08:20:51;;;;;;;9.40;6.97;;;29.50;51.00;;;;;;4944050;28;20526;-48
2021/05/15 08:23:18;;;;;;;7.63;7.00;;;29.80;50.30;;;;;;4970386;28;20782;-55
2021/05/15 08:25:44;;;;;;;7.07;6.40;;;30.20;49.20;;;;;;4977648;28;20445;-51
2021/05/15 08:28:13;;;;;;;6.77;6.17;;;30.10;48.20;;;;;;4925293;29;20446;-53
2021/05/15 08:30:41;;;;;;;6.37;5.77;;;30.30;47.80;;;;;;4920699;28;20472;-53
2021/05/15 08:33:08;;;;;;;6.70;6.10;;;30.00;48.40;;;;;;4913920;29;20512;-57
2021/05/15 08:35:35;;;;;;;7.50;6.80;;;29.90;48.60;;;;;;4917522;29;20442;-51
2021/05/15 08:38:02;;;;;;;11.20;7.10;;;29.50;48.90;;;;;;4917736;28;20974;-58
2021/05/15 08:40:29;;;;;;;10.37;7.43;;;29.10;49.10;;;;;;4917986;28;20460;-48
2021/05/15 08:42:56;;;;;;;8.13;7.20;;;28.60;50.30;;;;;;4917973;29;20473;-50
2021/05/15 08:45:24;;;;;;;7.60;6.90;;;28.60;50.40;;;;;;4917868;29;20907;-53
2021/05/15 08:47:52;;;;;;;8.53;7.63;;;28.30;51.00;;;;;;4917629;29;20638;-54
2021/05/15 08:50:20;;;;;;;7.77;6.93;;;28.60;50.50;;;;;;4917887;29;20493;-55
2021/05/15 08:52:49;;;;;;;6.83;6.13;;;28.90;49.70;;;;;;4917461;29;20830;-55
2021/05/15 08:55:17;;;;;;;6.43;5.87;;;29.30;49.20;;;;;;4922459;29;20597;-48
2021/05/15 08:57:45;;;;;;;7.83;6.40;;;29.50;48.80;;;;;;4922054;29;20485;-53
2021/05/15 09:00:16;;;;;;;8.90;6.50;;;29.70;47.90;;;;;;4922206;29;20449;-51
2021/05/15 09:02:43;;;;;;;7.60;6.77;;;29.60;47.90;;;;;;4917721;29;20442;-56
2021/05/15 09:05:11;;;;;;;8.17;6.70;;;29.50;47.50;;;;;;4917378;29;20479;-54
2021/05/15 09:07:38;;;;;;;8.70;7.80;;;29.50;47.90;;;;;;4917440;28;20462;-55
2021/05/15 09:10:07;;;;;;;6.73;6.00;;;29.30;47.20;;;;;;4917397;29;20454;-50
2021/05/15 09:12:33;;;;;;;11.83;10.37;;;29.30;46.70;;;;;;4917370;29;20523;-53
2021/05/15 09:15:03;;;;;;;6.40;5.80;;;29.60;47.70;;;;;;4917961;28;20587;-52
2021/05/15 09:17:29;;;;;;;6.50;5.37;;;29.60;47.50;;;;;;4933787;29;20472;-52
2021/05/15 09:19:58;;;;;;;7.63;6.93;;;29.90;47.90;;;;;;4936053;29;20946;-55
2021/05/15 09:22:28;;;;;;;6.77;6.07;;;30.10;46.60;;;;;;4936033;29;20543;-51
2021/05/15 09:24:54;;;;;;;6.73;6.03;;;29.90;46.10;;;;;;4936186;29;20798;-51
2021/05/15 09:27:32;;;;;;;6.97;6.20;;;29.20;47.40;;;;;;4936336;29;20815;-50
2021/05/15 09:29:58;;;;;;;8.00;5.80;;;28.90;49.00;;;;;;4936051;29;20452;-50
2021/05/15 09:32:30;;;;;;;7.03;6.43;;;29.00;47.50;;;;;;4935505;28;20992;-47
2021/05/15 09:34:56;;;;;;;6.10;5.60;;;28.50;47.90;;;;;;4916931;29;20914;-47
2021/05/15 09:37:31;;;;;;;10.63;7.13;;;27.50;49.60;;;;;;4917109;28;20548;-52
2021/05/15 09:39:57;;;;;;;5.27;4.87;;;26.50;51.90;;;;;;4917337;28;20556;-55
2021/05/15 09:42:23;;;;;;;5.47;4.93;;;26.20;52.20;;;;;;4921403;28;20481;-52
2021/05/15 09:44:49;;;;;;;6.77;6.17;;;25.70;54.70;;;;;;4916782;28;20454;-53
2021/05/15 09:47:18;;;;;;;6.07;4.70;;;25.00;54.90;;;;;;4917265;29;20449;-49
2021/05/15 09:49:49;;;;;;;7.07;6.37;;;24.20;57.20;;;;;;4916655;28;20465;-52
2021/05/15 09:52:15;;;;;;;6.80;5.53;;;23.50;57.90;;;;;;4916968;29;20446;-49
2021/05/15 09:54:43;;;;;;;7.07;5.80;;;22.90;60.30;;;;;;4917003;28;20454;-50
2021/05/15 09:57:11;;;;;;;6.17;5.53;;;22.50;63.40;;;;;;4917084;29;20485;-54
2021/05/15 09:59:39;;;;;;;6.50;5.00;;;22.60;64.60;;;;;;4922399;28;20460;-55
2021/05/15 10:02:06;;;;;;;5.37;4.87;;;23.00;65.50;;;;;;4935685;29;20547;-52
2021/05/15 10:04:33;;;;;;;5.60;5.10;;;23.90;62.30;;;;;;4936090;29;20513;-52
2021/05/15 10:07:01;;;;;;;4.70;4.30;;;24.90;59.20;;;;;;4935788;29;20460;-54
2021/05/15 10:09:28;;;;;;;6.80;4.50;;;25.70;56.50;;;;;;4935757;29;20464;-57
2021/05/15 10:11:55;;;;;;;3.90;3.60;;;26.10;54.80;;;;;;4935674;29;20460;-55
2021/05/15 10:14:21;;;;;;;3.63;3.07;;;26.00;54.20;;;;;;4935641;29;20452;-52
2021/05/15 10:16:48;;;;;;;4.10;3.70;;;25.00;54.70;;;;;;4935898;29;20483;-49
2021/05/15 10:19:15;;;;;;;4.67;3.90;;;23.80;57.00;;;;;;4935675;29;20485;-52
2021/05/15 10:21:41;;;;;;;4.20;3.30;;;23.40;57.70;;;;;;4935872;29;20452;-51
2021/05/15 10:24:17;;;;;;;5.50;3.13;;;23.30;58.80;;;;;;4935785;29;20456;-48
2021/05/15 10:26:45;;;;;;;2.67;2.40;;;23.60;57.30;;;;;;4935389;28;20559;-53
2021/05/15 10:29:11;;;;;;;3.57;3.00;;;23.70;56.80;;;;;;4935840;29;20437;-56
2021/05/15 10:31:39;;;;;;;3.90;2.60;;;23.50;56.00;;;;;;4935509;29;20457;-52
2021/05/15 10:34:05;;;;;;;2.70;2.50;;;23.60;56.80;;;;;;4935165;29;20496;-52
2021/05/15 10:36:43;;;;;;;3.20;2.50;;;23.80;56.40;;;;;;4935226;29;20515;-55
2021/05/15 10:39:09;;;;;;;3.13;2.77;;;23.70;56.60;;;;;;4916624;29;20481;-50
2021/05/15 10:41:44;;;;;;;2.80;2.50;;;23.60;55.60;;;;;;4916166;29;20950;-54
2021/05/15 10:44:11;;;;;;;2.43;2.10;;;23.10;56.90;;;;;;4916173;29;20930;-54
2021/05/15 10:46:45;;;;;;;4.33;2.67;;;22.50;58.20;;;;;;4916403;29;20453;-55
2021/05/15 10:49:18;;;;;;;4.87;3.10;;;22.00;58.80;;;;;;4916295;29;20797;-56
2021/05/15 11:28:07;;;;;;;2.53;1.57;;;20.60;66.60;;;;;;5156118;22;20710;-53
2021/05/15 11:30:35;;;;;;;5.00;1.70;;;20.50;66.30;;;;;;4954812;28;20468;-55
2021/05/15 11:33:04;;;;;;;2.93;1.83;;;20.40;67.20;;;;;;4954318;28;20826;-51
2021/05/15 11:35:32;;;;;;;2.63;1.80;;;20.60;68.60;;;;;;4955737;28;20932;-54
2021/05/15 11:38:07;;;;;;;2.70;1.57;;;20.80;68.00;;;;;;4955923;28;20530;-52
2021/05/15 11:40:35;;;;;;;1.63;1.53;;;21.00;67.80;;;;;;4955655;28;20799;-51
2021/05/15 11:43:01;;;;;;;1.47;1.30;;;21.00;67.50;;;;;;4955499;28;20452;-51
2021/05/15 11:45:29;;;;;;;2.30;2.10;;;20.80;67.40;;;;;;4955319;28;20456;-53
2021/05/15 11:48:11;;;;;;;2.53;1.63;;;20.50;68.70;;;;;;4955560;28;21015;-52
2021/05/15 11:50:38;;;;;;;2.70;2.07;;;20.30;71.30;;;;;;4956020;28;20455;-56
2021/05/15 11:53:05;;;;;;;3.47;1.53;;;20.30;72.90;;;;;;4955973;28;20451;-50
2021/05/15 11:55:32;;;;;;;3.50;1.70;;;20.40;72.80;;;;;;4955413;28;20471;-56
2021/05/15 11:58:01;;;;;;;1.60;1.30;;;20.50;74.00;;;;;;4955862;28;20534;-54
2021/05/15 12:00:29;;;;;;;1.37;1.27;;;20.50;73.80;;;;;;4955445;28;20812;-54
2021/05/15 12:02:55;;;;;;;1.87;1.57;;;20.50;74.80;;;;;;4945024;28;20515;-54
2021/05/15 12:05:22;;;;;;;2.20;1.30;;;20.80;76.00;;;;;;4955475;28;20451;-51
2021/05/15 12:07:50;;;;;;;3.10;1.70;;;20.80;73.30;;;;;;4956209;28;20447;-51
2021/05/15 12:10:19;;;;;;;2.07;1.57;;;20.70;72.60;;;;;;4958785;28;20460;-51
2021/05/15 12:12:56;;;;;;;1.50;1.40;;;20.90;72.60;;;;;;4958426;28;20466;-54
2021/05/15 12:15:23;;;;;;;2.40;1.23;;;21.20;72.60;;;;;;4955460;28;20459;-51
2021/05/15 12:17:50;;;;;;;2.90;1.67;;;21.30;70.50;;;;;;4957888;28;20475;-54
2021/05/15 12:20:31;;;;;;;1.70;1.40;;;21.20;71.40;;;;;;4958282;28;20460;-53
2021/05/15 12:23:09;;;;;;;2.63;1.50;;;21.20;66.80;;;;;;4954156;29;20431;-49
2021/05/15 12:25:36;;;;;;;1.80;1.50;;;21.30;62.80;;;;;;4953527;29;20451;-55
2021/05/15 12:28:03;;;;;;;1.50;1.13;;;21.30;58.80;;;;;;4957679;28;20967;-54
2021/05/15 12:30:29;;;;;;;1.70;1.20;;;21.20;58.20;;;;;;4957603;28;20459;-55
2021/05/15 12:33:04;;;;;;;1.37;1.27;;;21.00;58.90;;;;;;4957734;28;20452;-51
2021/05/15 12:35:31;;;;;;;4.80;2.23;;;21.00;58.20;;;;;;4957424;28;20456;-54
2021/05/15 12:37:58;;;;;;;2.20;1.60;;;21.10;57.50;;;;;;4958105;28;20475;-53
2021/05/15 12:40:28;;;;;;;3.10;1.90;;;21.10;58.00;;;;;;4957857;28;20462;-51
2021/05/15 12:42:55;;;;;;;2.03;1.40;;;21.20;58.40;;;;;;4958219;28;20452;-51
2021/05/15 12:45:22;;;;;;;3.10;1.37;;;21.10;58.40;;;;;;4957670;28;20471;-51
2021/05/15 12:47:48;;;;;;;1.57;1.30;;;21.10;58.70;;;;;;4958096;28;20447;-53
2021/05/15 12:50:17;;;;;;;1.80;1.70;;;21.00;58.90;;;;;;4957696;28;20448;-50
2021/05/15 12:52:43;;;;;;;2.33;1.30;;;21.00;59.80;;;;;;4958002;28;20517;-54
2021/05/15 12:55:12;;;;;;;4.07;1.40;;;21.10;61.80;;;;;;4957785;28;20510;-55
2021/05/15 12:57:38;;;;;;;2.13;1.93;;;21.00;61.60;;;;;;4958115;28;20853;-53
2021/05/15 13:00:06;;;;;;;2.83;1.50;;;21.00;62.40;;;;;;4957820;28;20975;-56
2021/05/15 13:02:32;;;;;;;4.47;1.90;;;20.80;61.80;;;;;;4957227;28;20436;-53
2021/05/15 13:05:00;;;;;;;2.10;1.80;;;20.70;63.10;;;;;;4957598;28;20820;-54
2021/05/15 13:07:29;;;;;;;3.70;2.20;;;20.70;64.40;;;;;;4957645;28;20444;-53
2021/05/15 13:09:57;;;;;;;1.40;1.30;;;20.90;63.70;;;;;;4957385;28;20463;-55
2021/05/15 13:12:24;;;;;;;2.27;1.70;;;21.00;62.80;;;;;;4957798;28;20788;-54
2021/05/15 13:14:50;;;;;;;1.40;1.30;;;21.10;64.00;;;;;;4957296;28;20525;-56
2021/05/15 13:17:16;;;;;;;1.20;1.10;;;21.10;64.00;;;;;;4957160;28;20448;-51
2021/05/15 13:19:43;;;;;;;2.00;1.57;;;21.30;65.00;;;;;;4956967;28;20456;-53
2021/05/15 13:22:09;;;;;;;4.03;1.50;;;21.60;63.60;;;;;;4957304;28;20912;-54
2021/05/15 13:24:39;;;;;;;1.90;1.40;;;21.70;63.20;;;;;;4958342;28;20909;-56
2021/05/15 13:27:05;;;;;;;4.20;1.57;;;21.80;62.50;;;;;;4957740;28;20483;-52
2021/05/15 13:29:32;;;;;;;1.87;1.67;;;21.80;62.80;;;;;;4957704;28;20444;-52
2021/05/15 13:31:58;;;;;;;2.83;2.17;;;21.60;62.60;;;;;;4957567;28;20518;-56
2021/05/15 13:34:24;;;;;;;4.80;3.80;;;21.30;63.50;;;;;;4957957;28;20997;-55
2021/05/15 13:36:51;;;;;;;3.63;1.67;;;21.00;66.80;;;;;;4957349;28;20863;-54
2021/05/15 13:39:17;;;;;;;3.63;1.80;;;20.60;75.50;;;;;;4956870;28;20511;-51
2021/05/15 13:41:45;;;;;;;2.70;1.70;;;20.10;81.50;;;;;;4950982;28;20455;-53
2021/05/15 13:44:11;;;;;;;1.50;1.17;;;19.60;87.80;;;;;;4957101;28;20916;-52
2021/05/15 13:46:37;;;;;;;3.70;2.20;;;19.40;93.70;;;;;;4957598;28;20459;-48
2021/05/15 13:49:04;;;;;;;1.60;1.50;;;19.20;98.10;;;;;;4957198;28;20451;-48
2021/05/15 13:51:31;;;;;;;2.33;1.57;;;19.00;99.70;;;;;;4957163;28;20823;-49
2021/05/15 13:53:57;;;;;;;4.83;2.00;;;18.90;99.90;;;;;;4956948;28;20929;-50
2021/05/15 13:56:25;;;;;;;4.33;1.90;;;18.90;99.90;;;;;;4951143;28;20500;-51
2021/05/15 13:58:52;;;;;;;3.50;2.00;;;18.80;99.90;;;;;;4957405;28;20536;-55
2021/05/15 14:01:19;;;;;;;4.00;1.83;;;18.80;99.90;;;;;;4957091;28;20471;-57
2021/05/15 14:03:46;;;;;;;2.50;2.10;;;18.80;99.90;;;;;;4943469;28;20453;-57
2021/05/15 14:06:12;;;;;;;2.27;1.73;;;18.90;99.90;;;;;;4937706;29;20464;-57
2021/05/15 14:08:38;;;;;;;2.33;1.70;;;19.10;99.90;;;;;;4931131;29;20466;-57
2021/05/15 14:11:05;;;;;;;1.60;1.37;;;19.30;99.90;;;;;;4926239;29;20448;-53
2021/05/15 14:13:32;;;;;;;1.63;1.40;;;19.40;99.90;;;;;;4919358;28;20453;-49
2021/05/15 14:15:59;;;;;;;2.07;1.40;;;19.60;99.90;;;;;;4922118;28;20453;-51